CheckWX is a tool to help pilots better visualize weather data.  It is not intended as a substitute for an official pre-flight weather briefing.

11:39:38 UTC

EKCH METAR
Copenhagen Kastrup Airport
Copenhagen, Denmark
Current

20 mins ago

EKCH 251120Z AUTO 36010KT 9999 FEW028/// SCT051/// 15/09 Q1027 NOSIG
Observed
May-25 @ 11:20 UTC
Wind
  • 360° at 10 KTS
Visibility
10,000+ meters
Flight Rules
VFR
Cloud Levels
  • Few at 2,800' AGL
  • Scattered at 5,100' AGL
Temperature
15°C / 59°F
Dewpoint
C / 48°F
Humidity
68%
Altimeter
30.32" Hg
Pressure
1026.92 hPa
Previous

50 mins ago

EKCH 251050Z AUTO 36009KT 9999 FEW026/// FEW034/// 16/11 Q1026 NOSIG
Observed
May-25 @ 10:50 UTC
Wind
  • 360° at 9 KTS
Visibility
10,000+ meters
Flight Rules
VFR
Cloud Levels
  • Few at 2,600' AGL
  • Few at 3,400' AGL
Temperature
16°C / 61°F
Dewpoint
11°C / 52°F
Humidity
72%
Altimeter
30.3" Hg
Pressure
1025.92 hPa
Previous

1 hour ago

EKCH 251020Z AUTO 35010KT 9999 BKN032/// 15/10 Q1026 NOSIG
Observed
May-25 @ 10:20 UTC
Wind
  • 350° at 10 KTS
Visibility
10,000+ meters
Flight Rules
VFR
Cloud Levels
  • Broken at 3,200' AGL
Temperature
15°C / 59°F
Dewpoint
10°C / 50°F
Humidity
72%
Altimeter
30.3" Hg
Pressure
1025.92 hPa